Time;durP1;ratioP1;P1;durP2;ratioP2;P2;SDS_P1;SDS_P2;PMS_P1;PMS_P2;Temp;Humidity;BMP_temperature;BMP_pressure;BME280_temperature;BME280_humidity;BME280_pressure;Samples;Min_cycle;Max_cycle;Signal;HPM_P1;HPM_P2
2021/08/18 22:07:50;;;;;;;;;7.00;6.25;;;;;18.50;69.89;100882.06;5089118;27;45396;-61
2021/08/18 22:10:15;;;;;;;;;4.50;4.25;;;;;18.54;69.33;100878.22;5072197;27;45422;-59
2021/08/18 22:12:41;;;;;;;;;7.50;7.00;;;;;18.62;69.05;100876.81;5053905;28;45323;-61
2021/08/18 22:15:08;;;;;;;;;5.25;4.50;;;;;18.72;69.04;100882.38;5072956;28;45505;-59
2021/08/18 22:17:34;;;;;;;;;6.75;5.25;;;;;18.81;68.73;100887.06;5072114;28;45701;-59
2021/08/18 22:20:00;;;;;;;;;4.00;4.00;;;;;18.91;68.71;100890.78;5072052;27;45458;-59
2021/08/18 22:22:25;;;;;;;;;6.75;6.75;;;;;18.97;68.38;100878.84;5072086;28;45363;-60
2021/08/18 22:24:51;;;;;;;;;5.25;5.25;;;;;19.04;67.96;100887.28;5072194;27;45590;-60
2021/08/18 22:27:16;;;;;;;;;5.00;3.50;;;;;19.09;67.83;100891.34;5070472;27;48672;-61
2021/08/18 22:29:42;;;;;;;;;3.75;3.75;;;;;19.12;68.14;100891.09;5072010;28;45464;-61
2021/08/18 22:32:09;;;;;;;;;4.50;4.50;;;;;19.17;67.52;100895.25;5072113;27;45346;-59
2021/08/18 22:34:35;;;;;;;;;7.25;5.00;;;;;19.22;67.43;100895.78;5072536;28;45350;-60
2021/08/18 22:37:00;;;;;;;;;4.00;4.00;;;;;19.26;67.47;100894.59;5071593;27;45511;-59
2021/08/18 22:39:26;;;;;;;;;3.25;3.00;;;;;19.26;67.38;100883.94;5071641;28;45333;-65
2021/08/18 22:41:52;;;;;;;;;5.75;5.00;;;;;19.29;67.70;100881.03;5087522;27;45249;-70
2021/08/18 22:44:17;;;;;;;;;18.50;16.00;;;;;19.32;67.33;100882.63;5072061;28;45643;-64
2021/08/18 22:46:43;;;;;;;;;26.25;25.50;;;;;19.34;67.61;100886.03;5071696;28;45253;-63
2021/08/18 22:49:08;;;;;;;;;7.50;4.00;;;;;19.33;67.41;100884.31;5070734;28;45358;-56
2021/08/18 22:51:33;;;;;;;;;6.00;4.00;;;;;19.32;66.98;100888.81;5066800;27;45495;-61
2021/08/18 22:53:59;;;;;;;;;4.00;4.00;;;;;19.33;67.11;100892.31;5071020;27;45481;-61
2021/08/18 22:56:24;;;;;;;;;3.75;3.50;;;;;19.32;67.29;100891.47;5070473;28;45496;-64
2021/08/18 22:58:50;;;;;;;;;4.25;4.25;;;;;19.31;67.53;100894.25;5069355;28;45458;-62
2021/08/18 23:01:15;;;;;;;;;4.00;4.00;;;;;19.25;67.57;100887.56;5063459;27;45436;-63
2021/08/18 23:03:41;;;;;;;;;5.25;4.00;;;;;19.25;67.77;100882.22;5063285;28;45460;-60
2021/08/18 23:06:06;;;;;;;;;4.00;4.00;;;;;19.22;67.89;100882.44;5076329;27;46271;-61
2021/08/18 23:08:32;;;;;;;;;3.00;3.00;;;;;19.21;67.56;100883.41;5089330;27;45465;-63
2021/08/18 23:10:57;;;;;;;;;3.25;3.00;;;;;19.22;67.77;100893.13;5090074;27;45471;-61
2021/08/18 23:13:23;;;;;;;;;4.00;3.00;;;;;19.22;67.69;100880.63;5090852;27;45450;-63
2021/08/18 23:15:48;;;;;;;;;5.00;4.00;;;;;19.23;67.39;100895.66;5090724;27;46345;-63
2021/08/18 23:18:14;;;;;;;;;5.00;4.00;;;;;19.23;67.48;100878.81;5082222;27;45504;-64
2021/08/18 23:20:39;;;;;;;;;3.25;2.25;;;;;19.20;67.65;100879.03;5078009;27;45395;-63
2021/08/18 23:23:07;;;;;;;;;3.00;3.00;;;;;19.20;67.90;100879.03;5078424;28;45276;-64
2021/08/18 23:25:32;;;;;;;;;5.00;3.25;;;;;19.20;67.81;100879.03;5077678;28;46454;-63
2021/08/18 23:27:58;;;;;;;;;3.50;3.50;;;;;19.20;67.98;100877.22;5077728;27;45355;-64
2021/08/18 23:30:24;;;;;;;;;2.00;2.00;;;;;19.14;67.39;100863.50;5078115;27;45433;-63
2021/08/18 23:32:49;;;;;;;;;4.00;3.00;;;;;19.26;67.46;100883.94;5076388;28;45526;-59
2021/08/18 23:35:15;;;;;;;;;3.00;3.00;;;;;19.21;67.29;100891.41;5077334;27;45365;-63
2021/08/18 23:37:40;;;;;;;;;2.75;2.75;;;;;19.16;67.60;100890.91;5059842;27;45930;-61
2021/08/18 23:40:06;;;;;;;;;5.50;4.00;;;;;19.11;67.62;100885.88;5078074;28;45362;-62
2021/08/18 23:42:33;;;;;;;;;3.00;3.00;;;;;19.10;67.97;100884.16;5077858;27;45363;-62
2021/08/18 23:45:02;;;;;;;;;4.25;4.00;;;;;19.10;67.84;100886.84;5075818;27;45448;-61
2021/08/18 23:47:27;;;;;;;;;2.50;2.00;;;;;19.10;68.10;100889.50;5058121;28;45722;-62
2021/08/18 23:49:53;;;;;;;;;5.25;3.00;;;;;19.10;68.15;100881.50;5057146;27;45437;-63
2021/08/18 23:52:20;;;;;;;;;2.00;2.00;;;;;19.09;67.85;100894.00;5077647;27;45210;-62
2021/08/18 23:54:45;;;;;;;;;3.00;3.00;;;;;19.05;68.16;100878.31;5077261;28;45366;-63
2021/08/18 23:57:10;;;;;;;;;3.50;3.50;;;;;19.04;67.81;100889.94;5077260;28;45341;-62
2021/08/18 23:59:36;;;;;;;;;5.75;3.00;;;;;19.05;67.84;100891.66;5077097;28;45253;-64
